Time;durP1;ratioP1;P1;durP2;ratioP2;P2;SDS_P1;SDS_P2;PMS_P1;PMS_P2;Temp;Humidity;BMP_temperature;BMP_pressure;BME280_temperature;BME280_humidity;BME280_pressure;Samples;Min_cycle;Max_cycle;Signal;HPM_P1;HPM_P2
2020/12/02 00:02:29;;;;;;;20.02;11.48;;;6.80;99.90;;;;;;5043690;28;20036;-61
2020/12/02 00:04:57;;;;;;;20.77;10.95;;;6.90;99.90;;;;;;5046095;28;20035;-60
2020/12/02 00:07:27;;;;;;;18.58;10.82;;;6.80;99.90;;;;;;5050854;28;20387;-61
2020/12/02 00:09:53;;;;;;;23.38;11.13;;;6.60;99.90;;;;;;5051618;28;20143;-61
2020/12/02 00:12:18;;;;;;;21.25;11.55;;;6.60;99.90;;;;;;5051981;28;20544;-62
2020/12/02 00:14:44;;;;;;;19.65;10.88;;;6.60;99.90;;;;;;5048002;28;20116;-61
2020/12/02 00:17:20;;;;;;;24.88;12.07;;;6.70;99.90;;;;;;5051511;28;20029;-62
2020/12/02 00:19:50;;;;;;;21.83;12.35;;;6.70;99.90;;;;;;5047412;28;20068;-61
2020/12/02 00:22:21;;;;;;;22.45;12.38;;;6.70;99.90;;;;;;5043759;28;20528;-62
2020/12/02 00:24:49;;;;;;;21.43;11.80;;;6.70;99.90;;;;;;5051402;28;20402;-62
2020/12/02 00:27:18;;;;;;;29.98;11.48;;;6.70;99.90;;;;;;5051585;28;20063;-61
2020/12/02 00:29:46;;;;;;;33.22;12.90;;;6.70;99.90;;;;;;5050757;28;20070;-63
2020/12/02 00:32:30;;;;;;;26.05;12.82;;;6.60;99.90;;;;;;5043731;28;20437;-60
2020/12/02 00:34:56;;;;;;;24.85;11.55;;;6.50;99.90;;;;;;5050576;28;20021;-62
2020/12/02 00:37:22;;;;;;;29.52;12.98;;;6.50;99.90;;;;;;5048686;28;20032;-61
2020/12/02 00:39:48;;;;;;;25.90;13.65;;;6.50;99.90;;;;;;5052392;28;20092;-61
2020/12/02 00:42:15;;;;;;;25.55;12.27;;;6.40;99.90;;;;;;5049155;28;20059;-65
2020/12/02 00:44:40;;;;;;;23.55;12.70;;;6.40;99.90;;;;;;5048497;28;20021;-62
2020/12/02 00:47:17;;;;;;;22.65;12.80;;;6.40;99.90;;;;;;5051497;28;20027;-61
2020/12/02 00:49:43;;;;;;;23.02;12.20;;;6.30;99.90;;;;;;5039528;28;20086;-60
2020/12/02 00:52:10;;;;;;;27.65;12.98;;;6.30;99.90;;;;;;5051621;28;20116;-61
2020/12/02 00:54:36;;;;;;;20.75;11.73;;;6.40;99.90;;;;;;5049822;28;20037;-60
2020/12/02 00:57:02;;;;;;;21.92;12.02;;;6.40;99.90;;;;;;5051221;28;20422;-61
2020/12/02 00:59:31;;;;;;;26.58;12.65;;;6.50;99.90;;;;;;5051152;28;20537;-61
2020/12/02 01:02:20;;;;;;;26.60;12.57;;;6.50;99.90;;;;;;5059050;28;20044;-61
2020/12/02 01:04:46;;;;;;;23.27;12.93;;;6.50;99.90;;;;;;5072819;28;20025;-62
2020/12/02 01:07:13;;;;;;;29.75;12.65;;;6.50;99.90;;;;;;5078572;28;20062;-62
2020/12/02 01:09:39;;;;;;;20.45;11.70;;;6.50;99.90;;;;;;5073177;28;20029;-61
2020/12/02 01:12:06;;;;;;;22.85;12.10;;;6.60;99.90;;;;;;5071809;28;20376;-61
2020/12/02 01:14:31;;;;;;;22.55;12.23;;;6.60;99.90;;;;;;5076105;28;20103;-60
2020/12/02 01:16:59;;;;;;;22.23;12.45;;;6.60;99.90;;;;;;5070421;28;20104;-60
2020/12/02 01:19:28;;;;;;;20.58;12.00;;;6.60;99.90;;;;;;5070886;28;20082;-61
2020/12/02 01:22:21;;;;;;;24.30;11.27;;;6.60;99.90;;;;;;5069102;28;20035;-61
2020/12/02 01:25:06;;;;;;;24.30;11.82;;;6.60;99.90;;;;;;5067561;28;20027;-61
2020/12/02 01:27:49;;;;;;;25.77;12.27;;;6.60;99.90;;;;;;5046570;28;20024;-61
2020/12/02 01:30:15;;;;;;;22.80;12.40;;;6.60;99.90;;;;;;5049608;28;20038;-61
2020/12/02 01:36:03;;;;;;;22.63;12.43;;;6.60;99.90;;;;;;5071045;28;20039;-61
2020/12/02 01:38:34;;;;;;;23.08;12.27;;;6.60;99.90;;;;;;5068863;28;20024;-62
2020/12/02 01:41:01;;;;;;;19.83;11.90;;;6.60;99.90;;;;;;5070048;28;20021;-62
2020/12/02 01:43:26;;;;;;;24.42;13.65;;;6.60;99.90;;;;;;5069539;28;20410;-61
2020/12/02 01:45:58;;;;;;;24.05;12.38;;;6.60;99.90;;;;;;5070130;28;20032;-62
2020/12/02 01:48:28;;;;;;;22.25;12.60;;;6.60;99.90;;;;;;5073592;28;20025;-60
2020/12/02 01:51:15;;;;;;;28.23;11.93;;;6.70;99.90;;;;;;5070638;28;20111;-62
2020/12/02 01:53:49;;;;;;;30.58;12.38;;;6.70;99.90;;;;;;5061568;28;20133;-61
2020/12/02 01:56:37;;;;;;;23.20;12.48;;;6.70;99.90;;;;;;5070174;28;20037;-61
2020/12/02 01:59:03;;;;;;;24.98;12.68;;;6.60;99.90;;;;;;5069984;28;20013;-61
2020/12/02 02:01:52;;;;;;;25.13;12.63;;;6.60;99.90;;;;;;5051936;28;20575;-62
2020/12/02 02:04:26;;;;;;;22.52;12.60;;;6.60;99.90;;;;;;5071087;28;20475;-61
2020/12/02 02:07:07;;;;;;;22.23;12.45;;;6.70;99.90;;;;;;5070563;28;20032;-62
2020/12/02 02:09:33;;;;;;;21.33;12.50;;;6.70;99.90;;;;;;5060151;28;20036;-62
2020/12/02 02:12:31;;;;;;;25.63;12.00;;;6.70;99.90;;;;;;5074155;28;20036;-61
2020/12/02 02:15:34;;;;;;;25.60;13.10;;;6.70;99.90;;;;;;5062679;28;20032;-61
2020/12/02 02:18:06;;;;;;;24.92;12.30;;;6.70;99.90;;;;;;5073702;28;20035;-62
2020/12/02 02:20:35;;;;;;;21.73;12.25;;;6.70;99.90;;;;;;5074276;28;20055;-62
2020/12/02 02:23:02;;;;;;;23.58;13.02;;;6.60;99.90;;;;;;5086847;28;20100;-61
2020/12/02 02:25:28;;;;;;;25.38;12.82;;;6.60;99.90;;;;;;5082488;28;20032;-61
2020/12/02 02:27:57;;;;;;;22.45;13.00;;;6.60;99.90;;;;;;5072058;28;20023;-60
2020/12/02 02:30:23;;;;;;;27.17;13.05;;;6.60;99.90;;;;;;5073787;28;20016;-61
2020/12/02 02:32:49;;;;;;;21.73;12.60;;;6.60;99.90;;;;;;5053867;28;20028;-61
2020/12/02 02:35:15;;;;;;;26.13;14.00;;;6.60;99.90;;;;;;5066872;28;20033;-60
2020/12/02 02:37:41;;;;;;;23.38;12.95;;;6.60;99.90;;;;;;5070581;28;20500;-60
2020/12/02 02:40:10;;;;;;;28.25;13.05;;;6.60;99.90;;;;;;5071794;28;20033;-60
2020/12/02 02:42:39;;;;;;;23.25;12.15;;;6.60;99.90;;;;;;5085915;28;20224;-61
2020/12/02 02:45:11;;;;;;;25.15;14.13;;;6.60;99.90;;;;;;5060110;28;20013;-61
2020/12/02 02:47:37;;;;;;;23.17;12.23;;;6.60;99.90;;;;;;5073122;28;20378;-60
2020/12/02 02:50:08;;;;;;;24.50;12.45;;;6.60;99.90;;;;;;5073233;28;20017;-61
2020/12/02 02:52:33;;;;;;;20.88;12.30;;;6.60;99.90;;;;;;5073567;28;20033;-61
2020/12/02 02:54:59;;;;;;;26.27;12.85;;;6.60;99.90;;;;;;5073119;28;20017;-61
2020/12/02 02:57:25;;;;;;;24.15;13.02;;;6.60;99.90;;;;;;5073833;28;20028;-61
2020/12/02 02:59:50;;;;;;;25.75;13.00;;;6.60;99.90;;;;;;5073436;28;20020;-61
2020/12/02 03:02:16;;;;;;;25.63;13.32;;;6.60;99.90;;;;;;5076210;28;20036;-60
2020/12/02 03:04:41;;;;;;;22.52;12.48;;;6.60;99.90;;;;;;5088268;28;20080;-61
2020/12/02 03:07:14;;;;;;;31.13;13.73;;;6.60;99.90;;;;;;5077432;28;20143;-62
2020/12/02 03:09:40;;;;;;;;;;;6.60;99.90;;;;;;5074062;28;20058;-61
2020/12/02 03:12:05;;;;;;;23.05;13.23;;;6.60;99.90;;;;;;5073089;28;19916;-61
2020/12/02 03:14:31;;;;;;;25.35;13.75;;;6.70;99.90;;;;;;5073738;28;20016;-61
2020/12/02 03:16:59;;;;;;;24.88;13.55;;;6.70;99.90;;;;;;5072650;28;20025;-60
2020/12/02 03:19:32;;;;;;;24.85;12.90;;;6.70;99.90;;;;;;5077699;28;20023;-60
2020/12/02 03:22:06;;;;;;;22.58;12.60;;;6.70;99.90;;;;;;5086837;28;20069;-62
2020/12/02 03:24:31;;;;;;;23.88;12.90;;;6.70;99.90;;;;;;5091462;28;20032;-60
2020/12/02 03:26:57;;;;;;;25.90;13.15;;;6.70;99.90;;;;;;5081363;28;20106;-61
2020/12/02 03:29:24;;;;;;;30.20;13.40;;;6.70;99.90;;;;;;5073595;28;20078;-60
2020/12/02 03:31:50;;;;;;;26.27;13.73;;;6.60;99.90;;;;;;5073625;28;20028;-60
2020/12/02 03:34:17;;;;;;;31.20;13.88;;;6.60;99.90;;;;;;5049089;28;20107;-61
2020/12/02 03:36:43;;;;;;;25.08;13.18;;;6.60;99.90;;;;;;5071647;28;20029;-61
2020/12/02 03:39:11;;;;;;;23.70;12.50;;;6.60;99.90;;;;;;5080421;28;20031;-62
2020/12/02 03:41:38;;;;;;;26.65;13.98;;;6.50;99.90;;;;;;5079482;28;20075;-61
2020/12/02 03:44:04;;;;;;;27.73;15.40;;;6.60;99.90;;;;;;5078989;28;20055;-60
2020/12/02 03:46:31;;;;;;;27.98;13.60;;;6.50;99.90;;;;;;5077955;28;20441;-61
2020/12/02 03:48:56;;;;;;;28.05;14.80;;;6.50;99.90;;;;;;5076927;28;20470;-62
2020/12/02 03:51:22;;;;;;;26.67;13.55;;;6.50;99.90;;;;;;5078830;28;20048;-62
2020/12/02 03:53:47;;;;;;;27.52;13.88;;;6.50;99.90;;;;;;5079559;28;20020;-61
2020/12/02 03:56:14;;;;;;;30.17;14.30;;;6.40;99.90;;;;;;5076386;28;20388;-61
2020/12/02 03:58:40;;;;;;;28.48;14.07;;;6.40;99.90;;;;;;5072926;28;20020;-61
2020/12/02 04:01:06;;;;;;;23.00;13.35;;;6.40;99.90;;;;;;5058945;28;20174;-60
2020/12/02 04:03:32;;;;;;;22.35;12.65;;;6.50;99.90;;;;;;5092772;28;20047;-60
2020/12/02 04:05:58;;;;;;;28.23;12.98;;;6.60;99.90;;;;;;5083489;28;20036;-61
2020/12/02 04:08:23;;;;;;;26.63;14.13;;;6.60;99.90;;;;;;5086246;28;20024;-62
2020/12/02 04:10:49;;;;;;;29.30;14.52;;;6.60;99.90;;;;;;5080421;28;20135;-61
2020/12/02 04:13:14;;;;;;;25.80;13.75;;;6.60;99.90;;;;;;5081217;28;20023;-61
2020/12/02 04:15:40;;;;;;;19.67;12.85;;;6.60;99.90;;;;;;5074991;28;20504;-61
2020/12/02 04:18:06;;;;;;;27.13;13.25;;;6.60;99.90;;;;;;5073573;28;20413;-61
2020/12/02 04:20:31;;;;;;;27.77;13.80;;;6.60;99.90;;;;;;5073072;28;20021;-61
2020/12/02 04:22:57;;;;;;;28.52;14.38;;;6.60;99.90;;;;;;5071990;28;20060;-61
2020/12/02 04:25:25;;;;;;;29.15;14.05;;;6.60;99.90;;;;;;5061208;28;20098;-61
2020/12/02 04:27:51;;;;;;;29.67;13.88;;;6.70;99.90;;;;;;5053090;28;20036;-61
2020/12/02 04:30:17;;;;;;;29.65;15.18;;;6.70;99.90;;;;;;5071690;28;20434;-60
2020/12/02 04:32:42;;;;;;;30.73;15.35;;;6.60;99.90;;;;;;5051415;28;20024;-61
2020/12/02 04:35:09;;;;;;;24.02;14.30;;;6.60;99.90;;;;;;5066139;28;20025;-61
2020/12/02 04:37:36;;;;;;;26.10;13.60;;;6.60;99.90;;;;;;5069872;28;20043;-61
2020/12/02 04:40:05;;;;;;;33.13;14.88;;;6.60;99.90;;;;;;5071987;28;20036;-62
2020/12/02 04:42:33;;;;;;;30.15;14.05;;;6.60;99.90;;;;;;5053918;28;20017;-61
2020/12/02 04:44:59;;;;;;;27.88;14.65;;;6.70;99.90;;;;;;5071234;28;20111;-61
2020/12/02 04:47:37;;;;;;;27.40;14.05;;;6.70;99.90;;;;;;5072629;28;20031;-61
2020/12/02 04:50:24;;;;;;;28.00;14.40;;;6.70;99.90;;;;;;5072347;28;20052;-61
2020/12/02 04:53:16;;;;;;;31.35;15.00;;;6.80;99.90;;;;;;5070054;28;20032;-61
2020/12/02 04:55:44;;;;;;;29.60;14.57;;;6.70;99.90;;;;;;5067157;28;20033;-62
2020/12/02 04:58:26;;;;;;;33.53;15.63;;;6.70;99.90;;;;;;5071369;28;20402;-61
2020/12/02 05:00:52;;;;;;;26.08;14.55;;;6.60;99.90;;;;;;5051843;28;20465;-61
2020/12/02 05:03:18;;;;;;;32.58;15.88;;;6.60;99.90;;;;;;5062423;23;20134;-65
2020/12/02 05:05:43;;;;;;;27.65;14.07;;;6.60;99.90;;;;;;5070109;28;20032;-64
2020/12/02 05:08:38;;;;;;;29.20;15.45;;;6.60;99.90;;;;;;5073104;28;20078;-64
2020/12/02 05:11:08;;;;;;;27.83;15.25;;;6.60;99.90;;;;;;5048345;28;20059;-65
2020/12/02 05:13:34;;;;;;;28.48;14.70;;;6.60;99.90;;;;;;5082652;28;20086;-66
2020/12/02 05:16:11;;;;;;;32.00;15.13;;;6.50;99.90;;;;;;5080450;28;20416;-66
2020/12/02 05:18:37;;;;;;;31.13;16.10;;;6.60;99.90;;;;;;5079529;28;20043;-64
2020/12/02 05:21:05;;;;;;;32.80;17.05;;;6.60;99.90;;;;;;5078056;28;20080;-65
2020/12/02 05:23:31;;;;;;;33.17;16.55;;;6.50;99.90;;;;;;5082332;28;20020;-65
2020/12/02 05:25:57;;;;;;;33.78;16.25;;;6.50;99.90;;;;;;5075968;28;20102;-65
2020/12/02 05:28:31;;;;;;;40.00;18.95;;;6.50;99.90;;;;;;5071398;28;20025;-67
2020/12/02 05:31:28;;;;;;;39.00;19.25;;;6.50;99.90;;;;;;5069510;28;20028;-64
2020/12/02 05:34:06;;;;;;;37.67;17.65;;;6.50;99.90;;;;;;5059819;28;20414;-63
2020/12/02 05:36:34;;;;;;;41.80;18.55;;;6.40;99.90;;;;;;5069231;28;20332;-64
2020/12/02 05:39:05;;;;;;;38.05;18.92;;;6.40;99.90;;;;;;5070861;28;20028;-63
2020/12/02 05:41:32;;;;;;;33.33;15.98;;;6.40;99.90;;;;;;5069733;28;20029;-65
2020/12/02 05:44:11;;;;;;;36.78;18.67;;;6.40;99.90;;;;;;5069405;28;20036;-63
2020/12/02 05:46:42;;;;;;;33.30;16.90;;;6.50;99.90;;;;;;5070265;28;20082;-65
2020/12/02 05:49:15;;;;;;;37.28;17.50;;;6.40;99.90;;;;;;5069585;28;20188;-65
2020/12/02 05:51:41;;;;;;;35.58;16.92;;;6.50;99.90;;;;;;5070543;28;20024;-65
2020/12/02 05:54:13;;;;;;;33.83;16.58;;;6.50;99.90;;;;;;5070201;28;20517;-65
2020/12/02 05:56:39;;;;;;;33.60;16.67;;;6.60;99.90;;;;;;5068609;28;20038;-64
2020/12/02 05:59:06;;;;;;;29.02;16.73;;;6.60;99.90;;;;;;5069942;28;20104;-64
2020/12/02 06:01:32;;;;;;;34.47;17.38;;;6.60;99.90;;;;;;5068589;28;20036;-64
2020/12/02 06:03:59;;;;;;;34.00;16.13;;;6.50;99.90;;;;;;5069460;28;20060;-64
2020/12/02 06:06:30;;;;;;;33.22;16.63;;;6.60;99.90;;;;;;5069943;28;20023;-65
2020/12/02 06:08:56;;;;;;;31.70;17.05;;;6.60;99.90;;;;;;5069647;28;20020;-66
2020/12/02 06:11:26;;;;;;;35.88;17.85;;;6.70;99.90;;;;;;5067494;28;20063;-64
2020/12/02 06:14:04;;;;;;;35.38;17.40;;;6.70;99.90;;;;;;5069510;28;20375;-66
2020/12/02 06:16:44;;;;;;;32.47;15.23;;;6.60;99.90;;;;;;5067055;28;20078;-65
2020/12/02 06:19:17;;;;;;;31.35;16.40;;;6.70;99.90;;;;;;5067151;28;20020;-65
2020/12/02 06:21:46;;;;;;;32.30;16.80;;;6.70;99.90;;;;;;5069573;28;20031;-64
2020/12/02 06:24:33;;;;;;;29.00;15.60;;;6.70;99.90;;;;;;5071318;28;20086;-65
2020/12/02 06:26:59;;;;;;;30.33;15.38;;;6.70;99.90;;;;;;5033900;28;20447;-66
2020/12/02 06:29:26;;;;;;;35.60;17.35;;;6.60;99.90;;;;;;5067948;28;20580;-64
2020/12/02 06:31:57;;;;;;;29.17;15.88;;;6.60;99.90;;;;;;5068724;28;20028;-65
2020/12/02 06:34:31;;;;;;;31.50;15.73;;;6.60;99.90;;;;;;5068559;28;20027;-64
2020/12/02 06:37:09;;;;;;;31.27;16.80;;;6.70;99.90;;;;;;5069577;28;20054;-64
2020/12/02 06:39:38;;;;;;;34.92;17.23;;;6.70;99.90;;;;;;5069538;28;20031;-65
2020/12/02 06:42:41;;;;;;;32.20;15.90;;;6.60;99.90;;;;;;5072196;28;20016;-64
2020/12/02 06:45:16;;;;;;;29.50;16.95;;;6.70;99.90;;;;;;5069044;28;20494;-65
2020/12/02 06:47:55;;;;;;;36.97;17.95;;;6.70;99.90;;;;;;5071507;28;20032;-65
2020/12/02 06:50:25;;;;;;;33.70;16.40;;;6.70;99.90;;;;;;5072523;28;20040;-65
2020/12/02 06:52:50;;;;;;;32.83;16.58;;;6.70;99.90;;;;;;5071528;28;20016;-64
2020/12/02 06:55:23;;;;;;;31.70;16.67;;;6.80;99.90;;;;;;5071332;28;20074;-64
2020/12/02 06:57:58;;;;;;;39.92;16.58;;;6.90;99.90;;;;;;5073887;28;20031;-64
2020/12/02 07:00:29;;;;;;;35.92;16.77;;;6.80;99.90;;;;;;5072453;28;20008;-65
2020/12/02 07:03:00;;;;;;;34.58;17.40;;;6.70;99.90;;;;;;5066698;28;20032;-65
2020/12/02 07:05:39;;;;;;;34.72;17.65;;;6.80;99.90;;;;;;5073219;28;20044;-65
2020/12/02 07:08:15;;;;;;;37.13;16.60;;;6.80;99.90;;;;;;5069552;28;20021;-65
2020/12/02 07:10:41;;;;;;;33.88;17.15;;;6.70;99.90;;;;;;5066461;28;20059;-65
2020/12/02 07:13:13;;;;;;;36.33;18.80;;;6.70;99.90;;;;;;5073771;28;20417;-65
2020/12/02 07:15:39;;;;;;;39.10;18.52;;;6.70;99.90;;;;;;5069134;28;20049;-64
2020/12/02 07:18:10;;;;;;;33.30;17.60;;;6.70;99.90;;;;;;5050066;28;20050;-64
2020/12/02 07:20:36;;;;;;;40.75;17.30;;;6.80;99.90;;;;;;5072585;28;20020;-65
2020/12/02 07:23:02;;;;;;;35.33;17.40;;;6.80;99.90;;;;;;5074257;28;20074;-65
2020/12/02 07:25:27;;;;;;;36.47;18.27;;;6.80;99.90;;;;;;5073434;28;20111;-65
2020/12/02 07:27:53;;;;;;;42.13;17.70;;;6.80;99.90;;;;;;5075817;28;20239;-64
2020/12/02 07:30:38;;;;;;;40.85;17.95;;;6.80;99.90;;;;;;5074587;28;20032;-65
2020/12/02 07:33:26;;;;;;;31.58;17.38;;;6.80;99.90;;;;;;5062757;28;20017;-63
2020/12/02 07:36:04;;;;;;;38.70;18.02;;;6.80;99.90;;;;;;5070399;28;20111;-64
2020/12/02 07:38:30;;;;;;;37.33;17.48;;;6.70;99.90;;;;;;5073753;28;20021;-64
2020/12/02 07:41:13;;;;;;;39.85;18.42;;;6.70;99.90;;;;;;5075594;28;20439;-64
2020/12/02 07:43:42;;;;;;;44.53;19.48;;;6.70;99.90;;;;;;5066885;28;20040;-64
2020/12/02 07:46:08;;;;;;;40.22;19.17;;;6.60;99.90;;;;;;5074961;28;20029;-64
2020/12/02 07:48:34;;;;;;;39.08;18.70;;;6.60;99.90;;;;;;5073546;28;20021;-64
2020/12/02 07:51:07;;;;;;;37.65;19.70;;;6.60;99.90;;;;;;5072803;28;20393;-65
2020/12/02 07:53:49;;;;;;;44.83;19.08;;;6.70;99.90;;;;;;5072658;28;20025;-63
2020/12/02 07:56:30;;;;;;;42.10;18.27;;;6.70;99.90;;;;;;5065931;28;20029;-64
2020/12/02 07:59:03;;;;;;;47.05;21.77;;;6.60;99.90;;;;;;5070933;28;20023;-64
2020/12/02 08:01:34;;;;;;;50.97;22.08;;;6.50;99.90;;;;;;5056180;28;20043;-65
2020/12/02 08:04:21;;;;;;;49.30;21.80;;;6.60;99.90;;;;;;5073517;28;20044;-65
2020/12/02 08:06:54;;;;;;;49.63;22.58;;;6.60;99.90;;;;;;5060731;28;20033;-65
2020/12/02 08:09:20;;;;;;;50.45;21.38;;;6.60;99.90;;;;;;5073666;28;20027;-64
2020/12/02 08:12:10;;;;;;;54.72;24.13;;;6.70;99.90;;;;;;5075972;28;20036;-65
2020/12/02 08:14:40;;;;;;;49.30;22.15;;;6.60;99.90;;;;;;5074427;28;20104;-65
2020/12/02 08:17:12;;;;;;;54.42;25.02;;;6.70;99.90;;;;;;5073339;28;20036;-64
2020/12/02 08:19:41;;;;;;;53.67;23.98;;;6.70;99.90;;;;;;5072675;28;20474;-64
2020/12/02 08:22:18;;;;;;;52.97;23.42;;;6.70;99.90;;;;;;5074557;28;20025;-64
2020/12/02 08:24:44;;;;;;;48.30;21.02;;;6.60;99.90;;;;;;5073123;28;20046;-64
2020/12/02 08:27:12;;;;;;;53.88;22.83;;;6.60;99.90;;;;;;5073629;28;20103;-64
2020/12/02 08:29:38;;;;;;;46.60;20.92;;;6.60;99.90;;;;;;5073763;28;20035;-64
2020/12/02 08:32:16;;;;;;;48.58;21.90;;;6.60;99.90;;;;;;5070706;28;20060;-65
2020/12/02 08:34:41;;;;;;;42.13;20.10;;;6.70;99.90;;;;;;5072433;28;20107;-64
2020/12/02 08:37:10;;;;;;;44.08;20.23;;;6.80;99.90;;;;;;5071688;28;20099;-65
2020/12/02 08:39:38;;;;;;;46.28;21.45;;;6.80;99.90;;;;;;5071286;28;20035;-66
2020/12/02 08:42:03;;;;;;;43.22;20.33;;;6.80;99.90;;;;;;5065924;28;20017;-64
2020/12/02 08:44:29;;;;;;;38.58;18.60;;;6.70;99.90;;;;;;5072030;28;20414;-65
2020/12/02 08:46:59;;;;;;;42.70;20.38;;;6.60;99.90;;;;;;5072618;28;20052;-64
2020/12/02 08:49:29;;;;;;;47.47;21.50;;;6.60;99.90;;;;;;5073020;28;20021;-65
2020/12/02 08:51:55;;;;;;;42.75;19.48;;;6.60;99.90;;;;;;5072733;28;20024;-65
2020/12/02 08:54:23;;;;;;;41.15;20.35;;;6.70;99.90;;;;;;5072779;28;20367;-65
2020/12/02 08:56:49;;;;;;;45.58;21.45;;;6.80;99.90;;;;;;5059807;28;20025;-63
2020/12/02 08:59:15;;;;;;;44.20;21.63;;;6.80;99.90;;;;;;5048330;28;20515;-63
2020/12/02 09:01:41;;;;;;;48.67;20.40;;;6.80;99.90;;;;;;5066865;28;20098;-64
2020/12/02 09:04:07;;;;;;;46.20;20.95;;;6.70;99.90;;;;;;5053555;28;20129;-67
2020/12/02 09:06:33;;;;;;;47.55;21.05;;;6.70;99.90;;;;;;5073397;28;20024;-65
2020/12/02 09:08:58;;;;;;;50.28;20.80;;;6.70;99.90;;;;;;5071790;28;20019;-64
2020/12/02 09:11:30;;;;;;;41.55;19.50;;;6.70;99.90;;;;;;5072724;28;20028;-64
2020/12/02 09:13:57;;;;;;;41.55;17.98;;;6.70;99.90;;;;;;5072724;28;20036;-65
2020/12/02 09:16:28;;;;;;;46.13;22.17;;;6.80;99.90;;;;;;5072255;28;20032;-65
2020/12/02 09:18:55;;;;;;;48.83;21.15;;;6.80;99.90;;;;;;5055056;28;20032;-64
2020/12/02 09:21:22;;;;;;;42.38;20.17;;;6.70;99.90;;;;;;5071308;28;20103;-64
2020/12/02 09:23:48;;;;;;;43.50;20.08;;;6.70;99.90;;;;;;5055553;28;20024;-65
2020/12/02 09:26:18;;;;;;;50.17;20.45;;;6.70;99.90;;;;;;5071727;28;20020;-65
2020/12/02 09:28:44;;;;;;;42.35;19.08;;;6.70;99.90;;;;;;5061521;28;20378;-65
2020/12/02 09:31:10;;;;;;;43.40;19.70;;;6.70;99.90;;;;;;5073114;28;20025;-65
2020/12/02 09:33:36;;;;;;;40.30;19.83;;;6.80;99.90;;;;;;5072837;28;20049;-65
2020/12/02 09:36:01;;;;;;;43.13;20.05;;;6.90;99.90;;;;;;5070335;28;20028;-65
2020/12/02 09:38:27;;;;;;;41.92;19.73;;;6.90;99.90;;;;;;5071178;28;20043;-65
2020/12/02 09:40:55;;;;;;;40.00;19.05;;;7.00;99.90;;;;;;5070424;28;20088;-64
2020/12/02 09:43:38;;;;;;;39.60;19.15;;;7.10;99.90;;;;;;5067674;28;20465;-65
2020/12/02 09:46:12;;;;;;;39.72;19.30;;;7.20;99.90;;;;;;5069532;28;20096;-65
2020/12/02 09:48:37;;;;;;;39.35;18.60;;;7.10;99.90;;;;;;5069646;28;20548;-64
2020/12/02 09:51:20;;;;;;;36.42;18.58;;;7.00;99.90;;;;;;5070279;28;20029;-64
2020/12/02 09:53:47;;;;;;;36.72;18.63;;;7.00;99.90;;;;;;5071675;28;20107;-64
2020/12/02 09:56:13;;;;;;;44.90;19.27;;;7.10;99.90;;;;;;5071374;28;20029;-65
2020/12/02 09:58:39;;;;;;;40.05;19.77;;;7.00;99.90;;;;;;5059761;28;20052;-65
2020/12/02 10:01:12;;;;;;;44.15;18.25;;;6.90;99.90;;;;;;5071759;28;20029;-62
2020/12/02 10:03:57;;;;;;;39.80;18.98;;;6.90;99.90;;;;;;5071257;28;20044;-64
2020/12/02 10:06:57;;;;;;;34.85;17.70;;;7.00;99.90;;;;;;5064726;28;20025;-64
2020/12/02 10:09:37;;;;;;;37.53;18.77;;;6.80;99.90;;;;;;5070800;28;20070;-64
2020/12/02 10:12:32;;;;;;;41.53;18.92;;;6.70;99.90;;;;;;5046899;28;20024;-64
2020/12/02 10:15:08;;;;;;;38.67;19.33;;;6.80;99.90;;;;;;5067390;28;20095;-64
2020/12/02 10:17:52;;;;;;;36.50;19.35;;;6.90;99.90;;;;;;5071164;28;20080;-64
2020/12/02 10:20:30;;;;;;;33.42;16.73;;;6.80;99.90;;;;;;5069153;28;20082;-64
2020/12/02 10:23:14;;;;;;;36.95;17.45;;;6.70;99.90;;;;;;5071188;28;20060;-64
2020/12/02 10:26:05;;;;;;;34.35;18.15;;;6.80;99.90;;;;;;5070898;28;20517;-64
2020/12/02 10:28:55;;;;;;;38.63;18.67;;;6.90;99.90;;;;;;5068591;28;20028;-63
2020/12/02 10:31:22;;;;;;;40.75;17.67;;;7.10;99.90;;;;;;5071578;28;20017;-65
2020/12/02 10:34:09;;;;;;;41.10;18.67;;;7.10;99.90;;;;;;5076103;28;20130;-63
2020/12/02 10:36:40;;;;;;;35.30;17.25;;;7.10;99.90;;;;;;5069175;28;20033;-63
2020/12/02 10:39:10;;;;;;;29.55;15.48;;;7.30;99.90;;;;;;5075978;28;20021;-65
2020/12/02 10:42:01;;;;;;;37.22;17.98;;;7.10;99.90;;;;;;5075025;28;20032;-63
2020/12/02 10:44:52;;;;;;;34.00;17.17;;;7.10;99.90;;;;;;5061298;28;20028;-64
2020/12/02 10:47:59;;;;;;;30.58;16.30;;;7.10;99.90;;;;;;5066874;28;20100;-65
2020/12/02 10:50:29;;;;;;;35.90;17.25;;;7.00;99.90;;;;;;4986672;28;20565;-63
2020/12/02 10:52:56;;;;;;;35.20;16.83;;;7.10;99.90;;;;;;5073531;28;20426;-65
2020/12/02 10:55:26;;;;;;;36.40;18.27;;;7.20;99.90;;;;;;5076090;28;20546;-64
2020/12/02 10:57:57;;;;;;;32.03;17.35;;;7.10;99.90;;;;;;5077066;28;20025;-65
2020/12/02 11:00:23;;;;;;;31.90;16.45;;;7.10;99.90;;;;;;5076720;28;20021;-65
2020/12/02 11:03:06;;;;;;;37.22;17.98;;;7.20;99.90;;;;;;5086129;22;20056;-63
2020/12/02 11:05:31;;;;;;;;;;;7.00;99.90;;;;;;5092752;28;20235;-61
2020/12/02 11:08:21;;;;;;;36.33;17.27;;;7.00;99.90;;;;;;5092136;28;19904;-61
2020/12/02 11:11:16;;;;;;;34.83;17.02;;;7.00;99.90;;;;;;5105124;28;20085;-62
2020/12/02 11:13:48;;;;;;;37.40;18.15;;;7.00;99.90;;;;;;5086928;28;20489;-61
2020/12/02 11:16:39;;;;;;;29.93;16.43;;;7.10;99.90;;;;;;5094227;28;20031;-61
2020/12/02 11:19:46;;;;;;;32.88;15.82;;;7.20;99.90;;;;;;5053949;28;20366;-62
2020/12/02 11:22:30;;;;;;;35.33;17.05;;;7.30;99.90;;;;;;5087413;28;20030;-60
2020/12/02 11:25:50;;;;;;;33.67;17.40;;;7.20;99.90;;;;;;5093661;28;20020;-63
2020/12/02 11:28:15;;;;;;;32.03;16.58;;;7.20;99.90;;;;;;5030751;28;20052;-62
2020/12/02 11:30:43;;;;;;;29.50;16.17;;;7.10;99.90;;;;;;5088392;28;20044;-61
2020/12/02 11:33:52;;;;;;;35.45;17.70;;;7.00;99.90;;;;;;5075662;28;20183;-62
2020/12/02 11:36:43;;;;;;;33.58;16.88;;;7.00;99.90;;;;;;5069061;28;20026;-63
2020/12/02 11:39:35;;;;;;;37.42;17.15;;;7.10;99.90;;;;;;5097272;28;20024;-62
2020/12/02 11:42:05;;;;;;;33.60;17.40;;;7.10;99.90;;;;;;5091864;28;20065;-64
2020/12/02 11:44:42;;;;;;;35.15;16.48;;;7.20;99.90;;;;;;5072788;28;20105;-60
2020/12/02 11:47:12;;;;;;;36.22;17.52;;;7.40;99.90;;;;;;5091997;28;20520;-63
2020/12/02 11:49:43;;;;;;;33.20;17.23;;;7.30;99.90;;;;;;5094324;28;20120;-62
2020/12/02 11:52:16;;;;;;;35.20;18.13;;;7.20;99.90;;;;;;5089477;28;20027;-64
2020/12/02 11:54:42;;;;;;;36.17;17.85;;;7.20;99.90;;;;;;5092124;28;20110;-62
2020/12/02 11:57:10;;;;;;;36.85;17.42;;;7.20;99.90;;;;;;5091561;28;20020;-62
2020/12/02 11:59:36;;;;;;;35.50;16.83;;;7.20;99.90;;;;;;5092936;28;20020;-61
2020/12/02 12:02:20;;;;;;;30.42;15.43;;;7.10;99.90;;;;;;5092408;28;20024;-63
2020/12/02 12:05:11;;;;;;;33.83;17.58;;;7.20;99.90;;;;;;5092427;28;20028;-63
2020/12/02 12:08:17;;;;;;;33.65;16.98;;;7.20;99.90;;;;;;5092161;28;20081;-62
2020/12/02 12:10:54;;;;;;;33.58;17.23;;;7.10;99.90;;;;;;5090939;28;20107;-62
2020/12/02 12:13:22;;;;;;;34.35;17.52;;;7.10;99.90;;;;;;5091378;28;20484;-61
2020/12/02 12:16:24;;;;;;;33.75;17.85;;;7.20;99.90;;;;;;5091519;28;20043;-60
2020/12/02 12:18:59;;;;;;;36.20;16.98;;;7.10;99.90;;;;;;5087845;28;20055;-61
2020/12/02 12:21:31;;;;;;;35.47;17.98;;;7.00;99.90;;;;;;5078117;28;20024;-60
2020/12/02 12:23:57;;;;;;;37.10;16.52;;;7.10;99.90;;;;;;5092905;28;20032;-62
2020/12/02 12:26:25;;;;;;;36.03;16.58;;;7.00;99.90;;;;;;5090441;28;20440;-62
2020/12/02 12:28:50;;;;;;;37.38;18.30;;;7.00;99.90;;;;;;5092812;28;20035;-62
2020/12/02 12:31:25;;;;;;;34.35;16.95;;;7.00;99.90;;;;;;5091258;28;20027;-62
2020/12/02 12:34:00;;;;;;;38.85;18.60;;;7.00;99.90;;;;;;5092171;28;20274;-63
2020/12/02 12:36:28;;;;;;;42.08;19.25;;;7.00;99.90;;;;;;5090101;28;20020;-61
2020/12/02 12:38:59;;;;;;;34.53;17.15;;;7.10;99.90;;;;;;5086269;28;20055;-61
2020/12/02 12:41:37;;;;;;;38.63;17.55;;;7.10;99.90;;;;;;5093002;28;20030;-62
2020/12/02 12:44:21;;;;;;;34.17;17.15;;;7.20;99.90;;;;;;5089562;28;20089;-61
2020/12/02 12:47:07;;;;;;;33.15;16.67;;;7.30;99.90;;;;;;5078794;28;20028;-61
2020/12/02 12:49:33;;;;;;;39.65;17.33;;;7.30;99.90;;;;;;5090449;28;20024;-61
2020/12/02 12:52:01;;;;;;;37.97;17.52;;;7.20;99.90;;;;;;5091718;28;20630;-62
2020/12/02 12:54:27;;;;;;;35.50;16.48;;;7.20;99.90;;;;;;5087729;28;20032;-62
2020/12/02 12:56:53;;;;;;;34.13;17.80;;;7.10;99.90;;;;;;5085359;28;20071;-61
2020/12/02 12:59:21;;;;;;;40.15;17.33;;;7.00;99.90;;;;;;5101300;28;20016;-62
2020/12/02 13:01:49;;;;;;;42.13;19.45;;;6.90;99.90;;;;;;5096074;28;20421;-61
2020/12/02 13:04:18;;;;;;;42.78;17.92;;;7.00;99.90;;;;;;5092347;28;20056;-61
2020/12/02 13:07:13;;;;;;;45.90;18.98;;;6.90;99.90;;;;;;5088285;28;20106;-61
2020/12/02 13:09:54;;;;;;;42.53;19.60;;;7.00;99.90;;;;;;5088521;28;20528;-61